Time;durP1;ratioP1;P1;durP2;ratioP2;P2;SDS_P1;SDS_P2;PMS_P1;PMS_P2;Temp;Humidity;BMP_temperature;BMP_pressure;BME280_temperature;BME280_humidity;BME280_pressure;Samples;Min_cycle;Max_cycle;Signal;HPM_P1;HPM_P2
2023/01/22 00:01:11;;;;;;;13.63;5.87;;;1.00;99.90;;;;;;5075552;28;20028;-72
2023/01/22 00:03:37;;;;;;;9.97;5.53;;;1.00;99.90;;;;;;5092335;28;20122;-72
2023/01/22 00:06:04;;;;;;;10.73;5.17;;;1.00;99.90;;;;;;5074183;28;20031;-71
2023/01/22 00:08:30;;;;;;;11.03;5.30;;;1.00;99.90;;;;;;5074630;28;20051;-73
2023/01/22 00:10:55;;;;;;;9.60;5.20;;;1.00;99.90;;;;;;5095533;28;20496;-72
2023/01/22 00:13:23;;;;;;;12.07;5.40;;;1.00;99.90;;;;;;5095334;28;20020;-72
2023/01/22 00:15:48;;;;;;;11.73;5.30;;;1.00;99.90;;;;;;5094964;28;20020;-72
2023/01/22 00:18:14;;;;;;;12.33;5.70;;;1.00;99.90;;;;;;5077024;28;20055;-71
2023/01/22 00:20:40;;;;;;;10.00;4.93;;;1.00;99.90;;;;;;5077107;28;20048;-71
2023/01/22 00:23:05;;;;;;;9.67;5.27;;;1.00;99.90;;;;;;5077899;28;20024;-72
2023/01/22 00:25:31;;;;;;;12.60;5.67;;;1.00;99.90;;;;;;5077211;28;20021;-73
2023/01/22 00:27:57;;;;;;;12.60;5.27;;;0.90;99.90;;;;;;5095502;28;20429;-72
2023/01/22 00:30:22;;;;;;;8.57;4.90;;;0.90;99.90;;;;;;5077668;28;20027;-72
2023/01/22 00:32:48;;;;;;;10.83;5.13;;;1.00;99.90;;;;;;5076908;28;20112;-72
2023/01/22 00:35:14;;;;;;;11.87;5.53;;;1.00;99.90;;;;;;5095740;28;20046;-72
2023/01/22 00:37:39;;;;;;;10.10;4.93;;;1.00;99.90;;;;;;5084777;28;20027;-72
2023/01/22 00:40:06;;;;;;;9.87;5.27;;;0.90;99.90;;;;;;5102390;28;20067;-72
2023/01/22 00:42:31;;;;;;;9.80;5.20;;;0.90;99.90;;;;;;5081454;28;20058;-74
2023/01/22 00:44:58;;;;;;;11.10;5.20;;;1.00;99.90;;;;;;5074273;28;20060;-73
2023/01/22 00:47:25;;;;;;;13.83;5.47;;;0.90;99.90;;;;;;5073923;28;20047;-73
2023/01/22 00:49:50;;;;;;;12.40;5.77;;;0.90;99.90;;;;;;5073144;28;20024;-73
2023/01/22 00:52:16;;;;;;;12.27;5.57;;;0.90;99.90;;;;;;5092149;28;20085;-73
2023/01/22 00:54:42;;;;;;;10.23;5.03;;;0.90;99.90;;;;;;5091166;28;20508;-73
2023/01/22 00:57:07;;;;;;;11.23;5.13;;;1.00;99.90;;;;;;5091753;28;20028;-72
2023/01/22 00:59:33;;;;;;;11.20;5.20;;;0.90;99.90;;;;;;5073138;28;20063;-73
2023/01/22 01:01:58;;;;;;;10.37;5.23;;;0.90;99.90;;;;;;5073955;28;20321;-72
2023/01/22 01:04:24;;;;;;;11.43;5.53;;;0.90;99.90;;;;;;5092001;28;20059;-72
2023/01/22 01:06:49;;;;;;;14.17;5.90;;;0.90;99.90;;;;;;5091288;28;20024;-73
2023/01/22 01:09:15;;;;;;;11.97;5.77;;;1.00;99.90;;;;;;5073900;28;20036;-72
2023/01/22 01:11:41;;;;;;;10.77;5.27;;;1.00;99.90;;;;;;5073225;28;20545;-73
2023/01/22 01:14:06;;;;;;;11.10;5.50;;;1.00;99.90;;;;;;5091983;28;20028;-72
2023/01/22 01:16:32;;;;;;;13.73;5.70;;;1.00;99.90;;;;;;5073068;28;20119;-73
2023/01/22 01:19:04;;;;;;;12.37;5.60;;;1.00;99.90;;;;;;5095637;28;20052;-73
2023/01/22 01:21:30;;;;;;;11.35;5.80;;;1.00;99.90;;;;;;5095560;28;20028;-73
2023/01/22 01:23:57;;;;;;;13.53;5.87;;;1.00;99.90;;;;;;5095329;28;20032;-72
2023/01/22 01:26:24;;;;;;;12.50;5.30;;;1.00;99.90;;;;;;5095401;28;20454;-72
2023/01/22 01:28:53;;;;;;;8.93;5.00;;;1.00;99.90;;;;;;5076740;28;20754;-72
2023/01/22 01:31:21;;;;;;;12.23;5.50;;;1.00;99.90;;;;;;5077536;28;20024;-72
2023/01/22 01:33:47;;;;;;;12.97;5.67;;;1.00;99.90;;;;;;5076414;28;20043;-72
2023/01/22 01:36:22;;;;;;;11.23;5.53;;;1.10;99.90;;;;;;5077366;28;20028;-72
2023/01/22 01:38:48;;;;;;;13.53;5.67;;;1.10;99.90;;;;;;5094806;28;20082;-72
2023/01/22 01:41:18;;;;;;;12.30;5.70;;;1.10;99.90;;;;;;5095377;28;20086;-72
2023/01/22 01:43:43;;;;;;;13.70;5.70;;;1.10;99.90;;;;;;5094667;28;20027;-72
2023/01/22 01:46:22;;;;;;;12.83;5.97;;;1.10;99.90;;;;;;5077294;28;20022;-72
2023/01/22 01:48:51;;;;;;;11.80;5.70;;;1.10;99.90;;;;;;5094623;28;20032;-72
2023/01/22 01:51:21;;;;;;;12.27;5.90;;;1.10;99.90;;;;;;5077065;28;20035;-72
2023/01/22 01:53:49;;;;;;;10.60;6.37;;;1.10;99.90;;;;;;5094497;28;20099;-72
2023/01/22 01:56:22;;;;;;;10.93;6.23;;;1.10;99.90;;;;;;5076631;28;20020;-72
2023/01/22 01:58:52;;;;;;;11.87;5.77;;;1.10;99.90;;;;;;5076153;28;20123;-72
2023/01/22 02:01:18;;;;;;;12.10;5.53;;;1.10;99.90;;;;;;5095073;28;20032;-72
2023/01/22 02:03:45;;;;;;;12.13;6.07;;;1.20;99.90;;;;;;5076053;28;20028;-72
2023/01/22 02:06:13;;;;;;;14.17;6.23;;;1.20;99.90;;;;;;5076832;28;20028;-72
2023/01/22 02:08:41;;;;;;;13.07;6.63;;;1.10;99.90;;;;;;5094181;28;20110;-73
2023/01/22 02:11:07;;;;;;;14.57;6.40;;;1.10;99.90;;;;;;5076732;28;20083;-72
2023/01/22 02:13:36;;;;;;;12.43;5.90;;;1.20;99.90;;;;;;5094894;28;20156;-73
2023/01/22 02:16:03;;;;;;;14.23;6.87;;;1.20;99.90;;;;;;5076633;28;20492;-72
2023/01/22 02:18:29;;;;;;;15.50;7.10;;;1.20;99.90;;;;;;5094207;28;20500;-71
2023/01/22 02:20:57;;;;;;;16.10;6.37;;;1.20;99.90;;;;;;5075345;28;20028;-72
2023/01/22 02:23:23;;;;;;;15.33;7.43;;;1.20;99.90;;;;;;5076540;28;20032;-72
2023/01/22 02:25:49;;;;;;;15.40;7.47;;;1.20;99.90;;;;;;5075663;28;20124;-72
2023/01/22 02:28:14;;;;;;;14.20;7.00;;;1.20;99.90;;;;;;5075818;28;20024;-72
2023/01/22 02:30:41;;;;;;;14.70;6.93;;;1.20;99.90;;;;;;5075484;28;20101;-72
2023/01/22 02:33:07;;;;;;;16.10;7.17;;;1.30;99.90;;;;;;5094443;28;20021;-72
2023/01/22 02:35:32;;;;;;;14.17;6.87;;;1.20;99.90;;;;;;5094206;28;20482;-72
2023/01/22 02:37:58;;;;;;;14.80;7.67;;;1.30;99.90;;;;;;5093639;28;20476;-72
2023/01/22 02:40:24;;;;;;;14.67;6.90;;;1.20;99.90;;;;;;5094293;28;20024;-72
2023/01/22 02:42:49;;;;;;;13.17;6.90;;;1.30;99.90;;;;;;5093611;28;20035;-72
2023/01/22 02:45:15;;;;;;;15.63;7.60;;;1.30;99.90;;;;;;5076112;28;20354;-72
2023/01/22 02:47:40;;;;;;;17.00;7.57;;;1.30;99.90;;;;;;5093354;28;20024;-73
2023/01/22 02:50:07;;;;;;;16.90;8.10;;;1.30;99.90;;;;;;5076099;28;20024;-73
2023/01/22 02:52:32;;;;;;;18.70;8.27;;;1.30;99.90;;;;;;5086783;28;20058;-72
2023/01/22 02:54:58;;;;;;;14.03;7.33;;;1.30;99.90;;;;;;5095413;28;20508;-73
2023/01/22 02:57:24;;;;;;;15.80;8.07;;;1.30;99.90;;;;;;5096152;28;20361;-72
2023/01/22 02:59:49;;;;;;;17.17;7.63;;;1.30;99.90;;;;;;5095312;28;20050;-72
2023/01/22 03:02:15;;;;;;;17.00;7.47;;;1.30;99.90;;;;;;5114459;28;20039;-72
2023/01/22 03:04:41;;;;;;;14.80;7.63;;;1.40;99.90;;;;;;5095306;28;20028;-73
2023/01/22 03:07:06;;;;;;;13.27;6.87;;;1.40;99.90;;;;;;5095881;28;20058;-72
2023/01/22 03:09:32;;;;;;;15.03;6.53;;;1.40;99.90;;;;;;5095987;28;20047;-72
2023/01/22 03:11:58;;;;;;;17.50;8.37;;;1.40;99.90;;;;;;5113788;28;20031;-73
2023/01/22 03:22:36;;;;;;;16.03;7.10;;;1.30;99.90;;;;;;5113768;28;20074;-72
2023/01/22 03:25:02;;;;;;;13.77;6.70;;;1.30;99.90;;;;;;5113504;28;20066;-72
2023/01/22 03:27:29;;;;;;;13.97;6.67;;;1.30;99.90;;;;;;5095713;28;20031;-73
2023/01/22 03:29:55;;;;;;;12.33;7.17;;;1.30;99.90;;;;;;5113005;28;20027;-72
2023/01/22 03:32:22;;;;;;;15.00;6.80;;;1.40;99.90;;;;;;5095466;28;20066;-73
2023/01/22 03:34:47;;;;;;;13.60;7.10;;;1.40;99.90;;;;;;5094668;28;20031;-72
2023/01/22 03:37:13;;;;;;;13.57;7.10;;;1.40;99.90;;;;;;5095445;28;20024;-72
2023/01/22 03:39:39;;;;;;;14.17;7.43;;;1.40;99.90;;;;;;5094932;28;20039;-73
2023/01/22 03:42:06;;;;;;;14.93;7.20;;;1.40;99.90;;;;;;5095103;28;20028;-72
2023/01/22 03:44:31;;;;;;;14.40;7.20;;;1.40;99.90;;;;;;5113482;28;20468;-72
2023/01/22 03:46:57;;;;;;;16.23;7.30;;;1.30;99.90;;;;;;5112663;28;20119;-72
2023/01/22 03:49:22;;;;;;;15.47;7.00;;;1.40;99.90;;;;;;5094994;28;20032;-72
2023/01/22 03:51:48;;;;;;;15.77;6.97;;;1.40;99.90;;;;;;5112358;28;20465;-73
2023/01/22 03:54:15;;;;;;;14.77;7.70;;;1.40;99.90;;;;;;5095044;28;20027;-72
2023/01/22 03:56:41;;;;;;;13.17;7.17;;;1.40;99.90;;;;;;5093931;28;20024;-73
2023/01/22 03:59:07;;;;;;;13.37;7.07;;;1.40;99.90;;;;;;5094720;28;20031;-72
2023/01/22 04:01:33;;;;;;;15.00;7.40;;;1.40;99.90;;;;;;5095007;28;20035;-72
2023/01/22 04:03:59;;;;;;;12.70;6.80;;;1.40;99.90;;;;;;5094244;28;20089;-73
2023/01/22 04:06:26;;;;;;;16.07;7.63;;;1.40;99.90;;;;;;5094915;28;20027;-73
2023/01/22 04:08:56;;;;;;;15.80;7.23;;;1.40;99.90;;;;;;5094035;28;20028;-73
2023/01/22 04:11:22;;;;;;;13.90;6.63;;;1.40;99.90;;;;;;5094536;28;20036;-73
2023/01/22 04:13:48;;;;;;;13.70;6.40;;;1.50;99.90;;;;;;5093882;28;20027;-73
2023/01/22 04:16:14;;;;;;;14.27;7.00;;;1.40;99.90;;;;;;5113125;28;20111;-72
2023/01/22 04:18:41;;;;;;;12.63;7.40;;;1.40;99.90;;;;;;5112117;28;20044;-73
2023/01/22 04:21:07;;;;;;;13.47;6.97;;;1.50;99.90;;;;;;5094228;28;20039;-72
2023/01/22 04:23:34;;;;;;;15.20;7.20;;;1.40;99.90;;;;;;5112930;28;20142;-72
2023/01/22 04:26:00;;;;;;;15.83;7.50;;;1.50;99.90;;;;;;5093867;28;20885;-72
2023/01/22 04:28:25;;;;;;;15.00;6.90;;;1.50;99.90;;;;;;5094572;28;20488;-72
2023/01/22 04:30:52;;;;;;;11.57;6.30;;;1.40;99.90;;;;;;5111959;28;20514;-73
2023/01/22 04:33:18;;;;;;;12.03;6.57;;;1.50;99.90;;;;;;5094457;28;20369;-72
2023/01/22 04:35:47;;;;;;;13.07;7.23;;;1.40;99.90;;;;;;5093804;28;20111;-73
2023/01/22 04:38:13;;;;;;;12.43;6.70;;;1.40;99.90;;;;;;5094480;28;20111;-72
2023/01/22 04:40:39;;;;;;;16.10;7.00;;;1.40;99.90;;;;;;5112604;28;20106;-72
2023/01/22 04:43:06;;;;;;;14.23;7.43;;;1.50;99.90;;;;;;5093768;28;20031;-73
2023/01/22 04:45:32;;;;;;;13.53;7.37;;;1.50;99.90;;;;;;5094535;28;20027;-72
2023/01/22 04:47:58;;;;;;;13.60;6.37;;;1.50;99.90;;;;;;5111953;28;20467;-72
2023/01/22 04:50:27;;;;;;;14.10;6.77;;;1.50;99.90;;;;;;5094641;28;20464;-73
2023/01/22 04:52:55;;;;;;;10.83;6.23;;;1.50;99.90;;;;;;5095898;28;20035;-73
2023/01/22 04:55:22;;;;;;;13.47;6.80;;;1.50;99.90;;;;;;5098460;28;20027;-73
2023/01/22 04:57:47;;;;;;;11.77;6.03;;;1.50;99.90;;;;;;5097597;28;20372;-73
2023/01/22 05:00:13;;;;;;;14.57;6.63;;;1.50;99.90;;;;;;5098618;28;20035;-73
2023/01/22 05:02:39;;;;;;;13.30;6.80;;;1.50;99.90;;;;;;5098319;28;20027;-73
2023/01/22 05:05:07;;;;;;;13.70;7.00;;;1.50;99.90;;;;;;5097555;28;20621;-72
2023/01/22 05:07:33;;;;;;;12.73;6.60;;;1.50;99.90;;;;;;5116447;28;20035;-72
2023/01/22 05:09:58;;;;;;;15.00;6.57;;;1.50;99.90;;;;;;5115379;28;20027;-72
2023/01/22 05:12:24;;;;;;;12.43;6.37;;;1.50;99.90;;;;;;5098223;28;20069;-73
2023/01/22 05:14:49;;;;;;;13.03;7.07;;;1.50;99.90;;;;;;5115338;28;20046;-73
2023/01/22 05:17:16;;;;;;;12.23;6.47;;;1.50;99.90;;;;;;5116280;28;20019;-72
2023/01/22 05:19:41;;;;;;;12.80;6.20;;;1.50;99.90;;;;;;5097666;28;20415;-73
2023/01/22 05:22:07;;;;;;;11.60;5.70;;;1.50;99.90;;;;;;5097234;28;20046;-73
2023/01/22 05:24:32;;;;;;;13.80;6.50;;;1.50;99.90;;;;;;5116438;28;20106;-72
2023/01/22 05:26:58;;;;;;;12.83;6.43;;;1.50;99.90;;;;;;5115438;28;20419;-72
2023/01/22 05:29:25;;;;;;;10.93;5.93;;;1.60;99.90;;;;;;5098023;28;20031;-72
2023/01/22 05:31:55;;;;;;;10.83;6.00;;;1.60;99.90;;;;;;5085934;28;20063;-72
2023/01/22 05:34:21;;;;;;;10.90;6.17;;;1.60;99.90;;;;;;5092669;28;20030;-72
2023/01/22 05:36:47;;;;;;;14.00;6.20;;;1.60;99.90;;;;;;5097274;28;20114;-73
2023/01/22 05:39:13;;;;;;;10.63;6.00;;;1.60;99.90;;;;;;5109110;28;20035;-72
2023/01/22 05:41:39;;;;;;;10.77;6.07;;;1.60;99.90;;;;;;5097298;28;20023;-72
2023/01/22 05:44:05;;;;;;;12.90;6.10;;;1.60;99.90;;;;;;5095951;28;20023;-73
2023/01/22 05:46:30;;;;;;;12.40;6.13;;;1.60;99.90;;;;;;5115476;28;20020;-72
2023/01/22 05:48:57;;;;;;;11.13;5.90;;;1.60;99.90;;;;;;5096236;28;20030;-72
2023/01/22 05:51:23;;;;;;;10.20;5.53;;;1.60;99.90;;;;;;5115357;28;20036;-72
2023/01/22 05:53:49;;;;;;;11.60;5.83;;;1.60;99.90;;;;;;5095749;28;20050;-72
2023/01/22 05:56:15;;;;;;;13.17;5.63;;;1.60;99.90;;;;;;5114969;28;20461;-73
2023/01/22 05:58:40;;;;;;;12.77;5.80;;;1.60;99.90;;;;;;5115078;28;20095;-72
2023/01/22 06:01:06;;;;;;;11.40;5.20;;;1.60;99.90;;;;;;5113420;28;20016;-73
2023/01/22 06:03:31;;;;;;;10.37;5.43;;;1.60;99.90;;;;;;5075077;28;20030;-72
2023/01/22 06:06:02;;;;;;;9.93;5.27;;;1.60;99.90;;;;;;5088910;28;20370;-72
2023/01/22 06:08:29;;;;;;;11.77;6.43;;;1.60;99.90;;;;;;5096702;28;20472;-72
2023/01/22 06:10:59;;;;;;;10.73;5.20;;;1.60;99.90;;;;;;5114369;28;20110;-72
2023/01/22 06:13:25;;;;;;;10.20;5.03;;;1.60;99.90;;;;;;5096349;28;20027;-72
2023/01/22 06:15:52;;;;;;;11.00;5.30;;;1.50;99.90;;;;;;5095832;28;20034;-73
2023/01/22 06:18:19;;;;;;;11.60;5.67;;;1.50;99.90;;;;;;5092986;28;20048;-72
2023/01/22 06:20:44;;;;;;;12.80;5.97;;;1.60;99.90;;;;;;5092641;28;20087;-73
2023/01/22 06:23:10;;;;;;;11.47;5.87;;;1.60;99.90;;;;;;5093673;28;20050;-72
2023/01/22 06:25:35;;;;;;;11.10;5.70;;;1.60;99.90;;;;;;5093133;28;20024;-72
2023/01/22 06:28:01;;;;;;;9.93;5.40;;;1.50;99.90;;;;;;5092390;28;20107;-73
2023/01/22 06:30:27;;;;;;;9.57;5.10;;;1.60;99.90;;;;;;5094429;28;20036;-72
2023/01/22 06:32:53;;;;;;;9.33;5.47;;;1.50;99.90;;;;;;5089963;28;20032;-73
2023/01/22 06:35:19;;;;;;;11.10;5.03;;;1.60;99.90;;;;;;5094030;28;20031;-72
2023/01/22 06:37:46;;;;;;;9.10;4.53;;;1.60;99.90;;;;;;5092595;28;20027;-73
2023/01/22 06:40:11;;;;;;;11.40;5.33;;;1.60;99.90;;;;;;5094218;28;20036;-72
2023/01/22 06:42:37;;;;;;;8.67;4.93;;;1.60;99.90;;;;;;5092332;28;20111;-72
2023/01/22 06:45:03;;;;;;;11.17;5.10;;;1.60;99.90;;;;;;5091743;28;20034;-72
2023/01/22 06:47:29;;;;;;;8.57;5.13;;;1.60;99.90;;;;;;5092428;28;20028;-72
2023/01/22 06:49:54;;;;;;;9.60;4.97;;;1.60;99.90;;;;;;5091599;28;20434;-73
2023/01/22 06:52:20;;;;;;;9.50;4.63;;;1.60;99.90;;;;;;5092471;28;20032;-72
2023/01/22 06:54:45;;;;;;;9.23;5.10;;;1.60;99.90;;;;;;5093052;28;20469;-73
2023/01/22 06:57:11;;;;;;;10.27;5.20;;;1.60;99.90;;;;;;5093129;28;20047;-73
2023/01/22 06:59:36;;;;;;;9.17;5.13;;;1.60;99.90;;;;;;5092512;28;20035;-72
2023/01/22 07:02:02;;;;;;;10.07;4.37;;;1.50;99.90;;;;;;5083147;28;20406;-72
2023/01/22 07:04:28;;;;;;;10.43;5.20;;;1.50;99.90;;;;;;5089375;28;20020;-72
2023/01/22 07:06:53;;;;;;;10.83;5.00;;;1.60;99.90;;;;;;5091521;28;20071;-72
2023/01/22 07:09:19;;;;;;;10.10;5.00;;;1.60;99.90;;;;;;5093123;28;20031;-72
2023/01/22 07:11:45;;;;;;;10.13;5.07;;;1.60;99.90;;;;;;5092343;28;20330;-72
2023/01/22 07:14:10;;;;;;;10.83;4.83;;;1.60;99.90;;;;;;5092469;28;20024;-72
2023/01/22 07:16:36;;;;;;;11.03;5.37;;;1.60;99.90;;;;;;5091645;28;20073;-72
2023/01/22 07:19:01;;;;;;;10.67;5.47;;;1.60;99.90;;;;;;5090840;28;20044;-72
2023/01/22 07:21:27;;;;;;;13.47;5.97;;;1.60;99.90;;;;;;5093192;28;20029;-72
2023/01/22 07:23:53;;;;;;;12.60;5.40;;;1.60;99.90;;;;;;5092306;28;20032;-73
2023/01/22 07:26:18;;;;;;;11.30;5.03;;;1.60;99.90;;;;;;5091761;28;20034;-72
2023/01/22 07:28:44;;;;;;;13.27;5.70;;;1.60;99.90;;;;;;5091788;28;20031;-73
2023/01/22 07:31:11;;;;;;;7.73;4.93;;;1.60;99.90;;;;;;5090943;28;20107;-72
2023/01/22 07:33:37;;;;;;;9.43;4.90;;;1.60;99.90;;;;;;5081531;28;20107;-72
2023/01/22 07:36:03;;;;;;;9.77;5.30;;;1.60;99.90;;;;;;5090596;28;20136;-73
2023/01/22 07:38:29;;;;;;;9.60;5.43;;;1.60;99.90;;;;;;5092903;28;20093;-73
2023/01/22 07:41:05;;;;;;;11.00;5.63;;;1.60;99.90;;;;;;5092044;28;20110;-73
2023/01/22 07:43:31;;;;;;;10.57;5.33;;;1.60;99.90;;;;;;5092596;28;20055;-72
2023/01/22 07:46:03;;;;;;;9.00;5.37;;;1.60;99.90;;;;;;5090675;28;20024;-72
2023/01/22 07:48:29;;;;;;;10.50;5.03;;;1.60;99.90;;;;;;5091253;28;20488;-73
2023/01/22 07:50:58;;;;;;;10.67;5.50;;;1.60;99.90;;;;;;5090456;28;20040;-73
2023/01/22 07:53:24;;;;;;;10.53;5.27;;;1.70;99.90;;;;;;5092534;28;20031;-72
2023/01/22 07:55:49;;;;;;;9.70;4.87;;;1.70;99.90;;;;;;5090553;28;20028;-72
2023/01/22 07:58:15;;;;;;;8.67;5.13;;;1.70;99.90;;;;;;5090598;28;20020;-72
2023/01/22 08:00:40;;;;;;;10.27;4.93;;;1.70;99.90;;;;;;5091112;28;20496;-72
2023/01/22 08:03:09;;;;;;;9.27;5.13;;;1.70;99.90;;;;;;5078683;28;20227;-72
2023/01/22 08:05:35;;;;;;;9.03;5.20;;;1.80;99.90;;;;;;5091060;28;20026;-72
2023/01/22 08:08:01;;;;;;;12.67;6.10;;;1.90;99.90;;;;;;5090424;28;20420;-72
2023/01/22 08:10:26;;;;;;;11.00;5.73;;;1.90;99.90;;;;;;5092316;28;20035;-72
2023/01/22 08:12:52;;;;;;;10.33;5.30;;;1.90;99.90;;;;;;5090198;28;20024;-72
2023/01/22 08:15:17;;;;;;;9.80;5.30;;;1.90;99.90;;;;;;5092049;28;20389;-72
2023/01/22 08:17:43;;;;;;;9.30;5.17;;;1.90;99.90;;;;;;5090887;28;20055;-72
2023/01/22 08:20:10;;;;;;;8.73;5.03;;;2.00;99.90;;;;;;5091567;28;20088;-72
2023/01/22 08:22:35;;;;;;;13.23;5.40;;;2.10;99.90;;;;;;5091953;28;20458;-72
2023/01/22 08:25:01;;;;;;;10.33;5.37;;;2.10;99.90;;;;;;5090105;28;20076;-72
2023/01/22 08:27:26;;;;;;;11.27;6.03;;;2.10;99.90;;;;;;5090100;28;20039;-72
2023/01/22 08:29:52;;;;;;;11.07;5.83;;;2.10;99.90;;;;;;5090138;28;20040;-72
2023/01/22 08:32:18;;;;;;;9.63;5.33;;;2.10;99.90;;;;;;5080742;28;20028;-72
2023/01/22 08:34:44;;;;;;;9.70;5.40;;;2.20;99.90;;;;;;5089768;28;20028;-73
2023/01/22 08:37:09;;;;;;;9.43;5.30;;;2.20;99.90;;;;;;5091121;28;20027;-72
2023/01/22 08:39:35;;;;;;;9.27;5.00;;;2.20;99.90;;;;;;5089936;28;20040;-73
2023/01/22 08:42:01;;;;;;;13.03;6.20;;;2.20;99.90;;;;;;5089582;28;20059;-72
2023/01/22 08:44:26;;;;;;;10.23;5.20;;;2.20;99.90;;;;;;5091433;28;20449;-72
2023/01/22 08:46:52;;;;;;;10.87;5.93;;;2.30;99.90;;;;;;5091514;28;20032;-73
2023/01/22 08:49:20;;;;;;;10.10;5.67;;;2.30;99.90;;;;;;5090396;28;20067;-73
2023/01/22 08:51:45;;;;;;;12.20;5.93;;;2.30;99.90;;;;;;5088097;28;20453;-72
2023/01/22 08:54:11;;;;;;;11.23;5.87;;;2.30;99.90;;;;;;5090590;28;20028;-73
2023/01/22 08:56:36;;;;;;;9.10;4.87;;;2.30;99.90;;;;;;5086440;28;20488;-72
2023/01/22 08:59:05;;;;;;;10.17;5.83;;;2.30;99.90;;;;;;5090192;28;20205;-76
2023/01/22 09:01:32;;;;;;;8.63;5.10;;;2.30;99.90;;;;;;5085380;28;20024;-77
2023/01/22 09:03:58;;;;;;;9.20;5.30;;;2.30;99.90;;;;;;5089563;28;20021;-74
2023/01/22 09:06:25;;;;;;;10.30;5.23;;;2.30;99.90;;;;;;5090582;28;20028;-74
2023/01/22 09:08:51;;;;;;;9.87;5.77;;;2.30;99.90;;;;;;5089065;28;20024;-73
2023/01/22 09:11:17;;;;;;;13.27;5.93;;;2.30;99.90;;;;;;5089102;28;20032;-73
2023/01/22 09:13:43;;;;;;;9.20;5.77;;;2.30;99.90;;;;;;5082596;28;21325;-75
2023/01/22 09:16:09;;;;;;;11.50;5.90;;;2.30;99.90;;;;;;5090107;28;20031;-75
2023/01/22 09:18:36;;;;;;;11.63;5.67;;;2.30;99.90;;;;;;5089260;28;20048;-75
2023/01/22 09:21:03;;;;;;;10.23;5.50;;;2.40;99.90;;;;;;5088887;28;20048;-76
2023/01/22 09:23:28;;;;;;;11.40;6.20;;;2.40;99.90;;;;;;5091156;28;20035;-76
2023/01/22 09:25:54;;;;;;;9.20;5.60;;;2.30;99.90;;;;;;5089240;28;20470;-74
2023/01/22 09:28:20;;;;;;;10.30;5.63;;;2.30;99.90;;;;;;5090263;28;20020;-74
2023/01/22 09:30:45;;;;;;;11.63;5.87;;;2.30;99.90;;;;;;5091163;28;20031;-74
2023/01/22 09:33:11;;;;;;;8.70;5.30;;;2.30;99.90;;;;;;5084664;28;20039;-75
2023/01/22 09:35:37;;;;;;;12.20;6.50;;;2.30;99.90;;;;;;5089777;28;20024;-74
2023/01/22 09:38:04;;;;;;;11.60;6.53;;;2.40;99.90;;;;;;5090399;28;20024;-75
2023/01/22 09:40:41;;;;;;;10.40;5.40;;;2.40;99.90;;;;;;5093409;28;20031;-74
2023/01/22 09:43:28;;;;;;;8.30;5.23;;;2.40;99.90;;;;;;5093759;28;20477;-74
2023/01/22 09:45:55;;;;;;;9.57;4.90;;;2.40;99.90;;;;;;5094232;28;20021;-73
2023/01/22 09:48:23;;;;;;;9.90;5.23;;;2.50;99.90;;;;;;5093639;28;20020;-76
2023/01/22 09:50:49;;;;;;;9.43;5.43;;;2.40;99.90;;;;;;5093618;28;20024;-76
2023/01/22 09:53:18;;;;;;;9.80;5.40;;;2.50;99.90;;;;;;5093612;28;20032;-76
2023/01/22 09:55:46;;;;;;;8.10;5.33;;;2.50;99.90;;;;;;5091111;28;20438;-76
2023/01/22 09:58:20;;;;;;;9.87;5.93;;;2.50;99.90;;;;;;5094228;28;20065;-77
2023/01/22 10:00:56;;;;;;;10.83;5.63;;;2.50;99.90;;;;;;5093277;28;20040;-76
2023/01/22 10:03:44;;;;;;;9.23;5.70;;;2.50;99.90;;;;;;5093560;28;20037;-77
2023/01/22 10:06:17;;;;;;;10.07;5.30;;;2.50;99.90;;;;;;5092972;28;20376;-77
2023/01/22 10:08:58;;;;;;;8.97;5.70;;;2.50;99.90;;;;;;5093290;28;20024;-76
2023/01/22 10:11:24;;;;;;;12.23;6.37;;;2.60;99.90;;;;;;5093843;28;20012;-76
2023/01/22 10:13:54;;;;;;;11.37;6.03;;;2.60;99.90;;;;;;5093257;28;20020;-76
2023/01/22 10:16:20;;;;;;;10.37;5.40;;;2.60;99.90;;;;;;5093060;28;20510;-75
2023/01/22 10:19:05;;;;;;;9.77;5.50;;;2.50;99.90;;;;;;5101634;28;20055;-74
2023/01/22 10:21:35;;;;;;;10.10;5.73;;;2.50;99.90;;;;;;5104271;28;20541;-74
2023/01/22 10:24:00;;;;;;;9.37;5.90;;;2.50;99.90;;;;;;5085683;28;20043;-74
2023/01/22 10:26:38;;;;;;;11.33;6.33;;;2.50;99.90;;;;;;5096359;28;20085;-75
2023/01/22 10:29:24;;;;;;;10.20;6.00;;;2.60;99.90;;;;;;5107043;28;20034;-74
2023/01/22 10:31:55;;;;;;;10.93;6.20;;;2.60;99.90;;;;;;5091549;28;20031;-73
2023/01/22 10:34:26;;;;;;;9.35;5.75;;;2.60;99.90;;;;;;5073661;28;20028;-73
2023/01/22 10:36:53;;;;;;;9.17;5.77;;;2.70;99.90;;;;;;5087485;28;20388;-73
2023/01/22 10:39:22;;;;;;;8.23;4.77;;;2.80;99.90;;;;;;5087056;28;20041;-73
2023/01/22 10:41:48;;;;;;;8.77;4.70;;;2.80;99.90;;;;;;5080821;28;20055;-73
2023/01/22 10:44:21;;;;;;;8.57;5.00;;;2.90;99.90;;;;;;5083529;28;20051;-74
2023/01/22 10:46:49;;;;;;;9.53;5.20;;;2.90;99.90;;;;;;5098333;28;20027;-73
2023/01/22 10:49:26;;;;;;;10.23;5.57;;;2.90;99.90;;;;;;5099748;28;20034;-73
2023/01/22 10:51:57;;;;;;;8.43;4.77;;;2.90;99.90;;;;;;5101030;28;20054;-74
2023/01/22 10:54:42;;;;;;;8.73;4.80;;;2.90;99.90;;;;;;5109352;28;20028;-77
2023/01/22 10:57:25;;;;;;;8.63;4.40;;;2.90;99.90;;;;;;5087150;28;20110;-77
2023/01/22 11:00:12;;;;;;;7.03;4.63;;;3.00;99.90;;;;;;5079190;28;20535;-76
2023/01/22 11:02:42;;;;;;;7.83;4.40;;;3.00;99.90;;;;;;5087835;28;20113;-76
2023/01/22 11:05:21;;;;;;;7.30;4.50;;;3.00;99.90;;;;;;5107124;28;20020;-76
2023/01/22 11:07:50;;;;;;;7.93;4.67;;;3.00;99.90;;;;;;5100627;28;20069;-74
2023/01/22 11:10:24;;;;;;;6.83;4.60;;;3.00;99.90;;;;;;5108716;28;20085;-77
2023/01/22 11:12:56;;;;;;;7.60;4.50;;;3.10;99.90;;;;;;5075890;28;20027;-75
2023/01/22 11:15:42;;;;;;;7.32;4.43;;;3.20;99.90;;;;;;5092204;28;20102;-75
2023/01/22 11:18:16;;;;;;;8.37;4.27;;;3.20;99.90;;;;;;5105865;28;20058;-76
2023/01/22 11:20:41;;;;;;;8.93;5.00;;;3.20;99.90;;;;;;5096535;28;20135;-75
2023/01/22 11:23:15;;;;;;;7.93;4.80;;;3.20;99.90;;;;;;5106267;28;20525;-75
2023/01/22 11:26:02;;;;;;;10.20;4.97;;;3.20;99.90;;;;;;5103092;28;20027;-76
2023/01/22 11:28:41;;;;;;;8.67;4.80;;;3.30;99.90;;;;;;5096575;28;20024;-74
2023/01/22 11:31:39;;;;;;;8.53;4.50;;;3.20;99.90;;;;;;5104599;28;20024;-74
2023/01/22 11:34:32;;;;;;;6.67;4.50;;;3.30;99.90;;;;;;5099619;28;20019;-75
2023/01/22 11:37:04;;;;;;;7.47;4.40;;;3.30;99.90;;;;;;5082081;28;20024;-76
2023/01/22 11:40:19;;;;;;;7.18;4.53;;;3.40;99.90;;;;;;5102703;28;20035;-75
2023/01/22 11:43:02;;;;;;;6.77;4.10;;;3.40;99.90;;;;;;5011440;28;20093;-76
2023/01/22 11:45:46;;;;;;;7.27;4.47;;;3.50;99.90;;;;;;5091305;28;20028;-77
2023/01/22 11:48:42;;;;;;;7.97;4.83;;;3.50;99.90;;;;;;5096776;28;20137;-77
2023/01/22 11:51:24;;;;;;;6.20;4.17;;;3.60;99.90;;;;;;5083656;28;20480;-74
2023/01/22 11:53:53;;;;;;;6.80;4.40;;;3.60;99.90;;;;;;5101018;28;20039;-75
2023/01/22 11:56:38;;;;;;;6.40;3.90;;;3.60;99.90;;;;;;5107115;28;20080;-76
2023/01/22 11:59:35;;;;;;;6.27;4.13;;;3.60;99.90;;;;;;5083763;28;20027;-77
2023/01/22 12:02:15;;;;;;;10.37;4.63;;;3.60;99.90;;;;;;5098190;28;20047;-76
2023/01/22 12:04:56;;;;;;;6.90;4.33;;;3.70;99.90;;;;;;5089877;28;20489;-77
2023/01/22 12:07:34;;;;;;;7.10;4.30;;;3.70;99.90;;;;;;5093663;28;20045;-76
2023/01/22 12:10:11;;;;;;;6.73;3.90;;;3.70;99.90;;;;;;5097459;28;20027;-74
2023/01/22 12:12:46;;;;;;;5.40;3.73;;;3.90;99.90;;;;;;5095692;28;20038;-74
2023/01/22 12:15:32;;;;;;;8.37;4.77;;;3.90;99.90;;;;;;5085423;28;20038;-74
2023/01/22 12:18:06;;;;;;;7.47;4.00;;;3.90;99.90;;;;;;5103923;28;20047;-76
2023/01/22 12:20:42;;;;;;;6.77;4.43;;;3.90;99.90;;;;;;5113124;28;20061;-76
2023/01/22 12:23:20;;;;;;;6.43;4.10;;;4.00;99.90;;;;;;5108292;28;20540;-77
2023/01/22 12:26:01;;;;;;;6.97;4.20;;;4.00;99.90;;;;;;5103312;28;20031;-78
2023/01/22 12:28:34;;;;;;;6.32;4.20;;;4.10;99.90;;;;;;5097992;28;20456;-76
2023/01/22 12:31:21;;;;;;;7.77;3.70;;;4.10;99.90;;;;;;5110266;28;20131;-76
2023/01/22 12:33:47;;;;;;;7.70;4.23;;;4.20;99.90;;;;;;5104811;28;20028;-79
2023/01/22 12:36:17;;;;;;;8.80;4.47;;;4.10;99.90;;;;;;5100308;28;20037;-76
2023/01/22 12:38:52;;;;;;;10.67;4.90;;;4.20;99.90;;;;;;5113058;28;20019;-77
2023/01/22 12:41:53;;;;;;;7.47;4.20;;;4.20;99.90;;;;;;5093186;28;20025;-76
2023/01/22 12:44:24;;;;;;;8.80;4.17;;;4.20;99.90;;;;;;5076837;28;20020;-77
2023/01/22 12:47:18;;;;;;;7.90;3.97;;;4.20;99.90;;;;;;5091155;28;20024;-77
2023/01/22 12:49:49;;;;;;;5.63;3.57;;;4.10;99.90;;;;;;5102536;28;20039;-78
2023/01/22 12:52:31;;;;;;;6.90;4.25;;;4.20;99.90;;;;;;5097926;28;20031;-78
2023/01/22 12:54:57;;;;;;;6.88;3.70;;;4.10;99.90;;;;;;5093462;28;20052;-76
2023/01/22 12:57:34;;;;;;;7.87;4.80;;;4.10;99.90;;;;;;5098097;28;20031;-76
2023/01/22 13:00:11;;;;;;;6.03;3.63;;;4.20;99.90;;;;;;5101312;28;20036;-75
2023/01/22 13:02:38;;;;;;;6.50;3.53;;;4.10;99.90;;;;;;5099169;28;20019;-76
2023/01/22 13:05:11;;;;;;;7.53;4.00;;;4.10;99.90;;;;;;5101205;28;20028;-75
2023/01/22 13:07:39;;;;;;;5.53;3.67;;;4.20;99.90;;;;;;5100262;28;20031;-75